createdAt,value
2022-10-24T00:00:54.611Z,16.70
2022-10-24T00:03:23.527Z,16.70
2022-10-24T00:05:51.452Z,16.60
2022-10-24T00:08:20.731Z,16.70
2022-10-24T00:10:50.042Z,16.70
2022-10-24T00:13:18.933Z,16.70
2022-10-24T00:15:49.376Z,16.60
2022-10-24T00:18:18.235Z,16.60
2022-10-24T00:20:46.454Z,16.60
2022-10-24T00:23:14.770Z,16.60
2022-10-24T00:25:44.165Z,16.60
2022-10-24T00:28:12.529Z,16.60
2022-10-24T00:30:40.524Z,16.50
2022-10-24T00:33:08.393Z,16.50
2022-10-24T00:35:36.365Z,16.50
2022-10-24T00:38:04.519Z,16.50
2022-10-24T00:40:32.418Z,16.50
2022-10-24T00:43:02.935Z,16.50
2022-10-24T00:45:50.056Z,16.40
2022-10-24T00:48:23.318Z,16.40
2022-10-24T00:50:53.903Z,16.40
2022-10-24T00:53:23.309Z,16.40
2022-10-24T00:55:55.978Z,16.40
2022-10-24T00:58:28.615Z,16.30
2022-10-24T01:00:57.274Z,16.30
2022-10-24T01:03:25.494Z,16.30
2022-10-24T01:06:15.197Z,16.30
2022-10-24T01:08:48.422Z,16.40
2022-10-24T01:11:27.639Z,16.30
2022-10-24T01:14:04.363Z,16.30
2022-10-24T01:16:41.082Z,16.30
2022-10-24T01:19:21.650Z,16.30
2022-10-24T01:21:54.386Z,16.30
2022-10-24T01:24:48.350Z,16.30
2022-10-24T01:27:54.301Z,16.40
2022-10-24T01:30:24.110Z,16.30
2022-10-24T01:33:00.174Z,16.30
2022-10-24T01:35:40.357Z,16.40
2022-10-24T01:38:17.798Z,16.40
2022-10-24T01:40:52.633Z,16.40
2022-10-24T01:43:26.050Z,16.40
2022-10-24T01:46:01.749Z,16.50
2022-10-24T01:48:32.561Z,16.50
2022-10-24T01:51:03.276Z,16.50
2022-10-24T01:53:32.426Z,16.50
2022-10-24T01:56:01.002Z,16.50
2022-10-24T01:58:28.891Z,16.50
2022-10-24T02:01:03.177Z,16.50
2022-10-24T02:03:35.928Z,16.50
2022-10-24T02:06:09.500Z,16.50
2022-10-24T02:08:43.579Z,16.50
2022-10-24T02:11:13.388Z,16.50
2022-10-24T02:13:47.117Z,16.50
2022-10-24T02:16:20.356Z,16.50
2022-10-24T02:18:49.870Z,16.50
2022-10-24T02:21:25.550Z,16.50
2022-10-24T02:23:57.058Z,16.50
2022-10-24T02:26:34.849Z,16.50
2022-10-24T02:29:08.503Z,16.50
2022-10-24T02:31:41.485Z,16.40
2022-10-24T02:36:41.453Z,16.40
2022-10-24T02:39:11.266Z,16.40
2022-10-24T02:41:42.185Z,16.40
2022-10-24T02:44:13.428Z,16.40
2022-10-24T02:46:45.654Z,16.40
2022-10-24T02:49:14.531Z,16.40
2022-10-24T02:51:45.237Z,16.40
2022-10-24T02:54:13.234Z,16.40
2022-10-24T02:56:47.102Z,16.40
2022-10-24T02:59:15.015Z,16.40
2022-10-24T03:01:44.380Z,16.40
2022-10-24T03:04:12.293Z,16.40
2022-10-24T03:06:40.386Z,16.40
2022-10-24T03:09:08.319Z,16.40
2022-10-24T03:11:36.316Z,16.40
2022-10-24T03:14:04.498Z,16.30
2022-10-24T03:16:32.846Z,16.30
2022-10-24T03:19:02.129Z,16.40
2022-10-24T03:21:30.256Z,16.40
2022-10-24T03:24:00.367Z,16.40
2022-10-24T03:26:28.428Z,16.40
2022-10-24T03:28:56.601Z,16.40
2022-10-24T03:31:24.757Z,16.40
2022-10-24T03:33:52.836Z,16.30
2022-10-24T03:36:22.615Z,16.40
2022-10-24T03:38:50.663Z,16.30
2022-10-24T03:41:18.766Z,16.30
2022-10-24T03:43:46.695Z,16.30
2022-10-24T03:46:15.002Z,16.30
2022-10-24T03:48:43.300Z,16.30
2022-10-24T03:51:11.207Z,16.30
2022-10-24T03:53:40.561Z,16.30
2022-10-24T03:56:09.008Z,16.30
2022-10-24T03:58:37.053Z,16.30
2022-10-24T04:01:05.404Z,16.30
2022-10-24T04:03:33.478Z,16.30
2022-10-24T04:06:01.597Z,16.30
2022-10-24T04:08:29.724Z,16.30
2022-10-24T04:10:58.974Z,16.30
2022-10-24T04:13:26.988Z,16.30
2022-10-24T04:15:55.019Z,16.30
2022-10-24T04:18:22.947Z,16.30
2022-10-24T04:20:51.174Z,16.30
2022-10-24T04:23:19.265Z,16.30
2022-10-24T04:25:47.356Z,16.30
2022-10-24T04:28:16.910Z,16.30
2022-10-24T04:30:45.145Z,16.30
2022-10-24T04:33:13.075Z,16.30
2022-10-24T04:35:41.148Z,16.30
2022-10-24T04:38:09.103Z,16.30
2022-10-24T04:40:37.150Z,16.40
2022-10-24T04:43:05.068Z,16.40
2022-10-24T04:45:34.462Z,16.40
2022-10-24T04:48:02.445Z,16.40
2022-10-24T04:50:30.410Z,16.40
2022-10-24T04:52:58.348Z,16.40
2022-10-24T04:55:26.713Z,16.40
2022-10-24T04:57:54.984Z,16.30
2022-10-24T05:00:23.359Z,16.40
2022-10-24T05:02:54.202Z,16.30
2022-10-24T05:05:24.782Z,16.30
2022-10-24T05:07:52.661Z,16.30
2022-10-24T05:10:21.025Z,16.30
2022-10-24T05:12:49.048Z,16.30
2022-10-24T05:15:18.579Z,16.40
2022-10-24T05:17:46.535Z,16.40
2022-10-24T05:20:15.882Z,16.30
2022-10-24T05:22:44.057Z,16.30
2022-10-24T05:25:12.494Z,16.40
2022-10-24T05:27:40.517Z,16.30
2022-10-24T05:30:11.071Z,16.30
2022-10-24T05:32:39.764Z,16.30
2022-10-24T05:35:09.324Z,16.30
2022-10-24T05:37:39.803Z,16.30
2022-10-24T05:40:10.307Z,16.30
2022-10-24T05:42:38.823Z,16.40
2022-10-24T05:45:08.234Z,16.40
2022-10-24T05:47:36.461Z,16.40
2022-10-24T05:50:05.807Z,16.40
2022-10-24T05:52:36.373Z,16.40
2022-10-24T05:55:07.950Z,16.40
2022-10-24T05:57:37.459Z,16.40
2022-10-24T06:00:10.300Z,16.40
2022-10-24T06:02:38.312Z,16.40
2022-10-24T06:05:07.445Z,16.40
2022-10-24T06:07:35.698Z,16.40
2022-10-24T06:10:06.425Z,16.40
2022-10-24T06:12:36.226Z,16.40
2022-10-24T06:15:07.777Z,16.40
2022-10-24T06:17:35.755Z,16.40
2022-10-24T06:20:04.028Z,16.50
2022-10-24T06:22:32.101Z,16.40
2022-10-24T06:25:01.663Z,16.50
2022-10-24T06:27:30.905Z,16.50
2022-10-24T06:29:58.890Z,16.50
2022-10-24T06:32:26.921Z,16.50
2022-10-24T06:34:54.912Z,16.50
2022-10-24T06:37:23.039Z,16.50
2022-10-24T06:39:51.255Z,16.50
2022-10-24T06:42:19.117Z,16.50
2022-10-24T06:44:48.740Z,16.50
2022-10-24T06:47:16.695Z,16.50
2022-10-24T06:49:44.656Z,16.50
2022-10-24T06:52:12.741Z,16.50
2022-10-24T06:54:41.184Z,16.50
2022-10-24T06:57:09.275Z,16.60
2022-10-24T06:59:37.234Z,16.60
2022-10-24T07:02:06.745Z,16.60
2022-10-24T07:04:36.973Z,16.60
2022-10-24T07:07:04.960Z,16.70
2022-10-24T07:09:33.386Z,16.70
2022-10-24T07:12:01.274Z,16.70
2022-10-24T07:14:29.236Z,16.80
2022-10-24T07:16:57.208Z,16.80
2022-10-24T07:19:26.634Z,16.80
2022-10-24T07:21:54.801Z,16.80
2022-10-24T07:24:22.940Z,16.80
2022-10-24T07:26:53.477Z,16.80
2022-10-24T07:29:21.533Z,16.80
2022-10-24T07:31:49.743Z,16.80
2022-10-24T07:34:20.603Z,16.80
2022-10-24T07:36:50.280Z,16.80
2022-10-24T07:39:18.309Z,16.80
2022-10-24T07:41:46.594Z,16.80
2022-10-24T07:44:15.009Z,16.80
2022-10-24T07:46:43.511Z,16.80
2022-10-24T07:49:13.476Z,16.80
2022-10-24T07:51:43.028Z,16.80
2022-10-24T07:54:12.533Z,16.90
2022-10-24T07:56:40.476Z,16.90
2022-10-24T07:59:09.482Z,16.90
2022-10-24T08:01:44.365Z,17.00
2022-10-24T08:04:13.836Z,17.00
2022-10-24T08:06:44.768Z,17.00
2022-10-24T08:09:16.542Z,17.10
2022-10-24T08:11:44.490Z,17.20
2022-10-24T08:14:12.409Z,17.20
2022-10-24T08:16:43.251Z,17.20
2022-10-24T08:19:13.966Z,17.30
2022-10-24T08:21:41.956Z,17.30
2022-10-24T08:24:10.293Z,17.30
2022-10-24T08:26:41.339Z,17.40
2022-10-24T08:29:11.812Z,17.40
2022-10-24T08:31:40.529Z,17.40
2022-10-24T08:34:09.041Z,17.40
2022-10-24T08:36:37.161Z,17.50
2022-10-24T08:39:05.624Z,17.50
2022-10-24T08:41:37.322Z,17.50
2022-10-24T08:44:17.459Z,17.50
2022-10-24T08:46:52.046Z,17.60
2022-10-24T08:49:29.423Z,17.60
2022-10-24T08:52:01.105Z,17.60
2022-10-24T08:54:34.122Z,17.60
2022-10-24T08:57:02.242Z,17.60
2022-10-24T08:59:35.872Z,17.60
2022-10-24T09:02:18.758Z,17.70
2022-10-24T09:04:52.401Z,17.70
2022-10-24T09:07:22.510Z,17.60
2022-10-24T09:09:52.757Z,17.70
2022-10-24T09:12:22.038Z,17.70
2022-10-24T09:14:58.182Z,17.70
2022-10-24T09:17:31.096Z,17.80
2022-10-24T09:20:01.153Z,17.80
2022-10-24T09:22:33.904Z,17.80
2022-10-24T09:25:04.969Z,17.80
2022-10-24T09:27:35.755Z,17.80
2022-10-24T09:30:06.465Z,17.90
2022-10-24T09:32:36.648Z,17.80
2022-10-24T09:35:08.610Z,17.90
2022-10-24T09:37:44.143Z,17.90
2022-10-24T09:40:22.081Z,17.90
2022-10-24T09:42:59.963Z,17.90
2022-10-24T09:45:39.860Z,17.90
2022-10-24T09:48:19.482Z,17.90
2022-10-24T09:50:49.461Z,18.00
2022-10-24T09:53:26.950Z,18.00
2022-10-24T09:55:57.928Z,18.00
2022-10-24T09:58:32.373Z,18.10
2022-10-24T10:01:05.795Z,18.10
2022-10-24T10:03:34.767Z,18.10
2022-10-24T10:06:06.187Z,18.20
2022-10-24T10:08:36.388Z,18.20
2022-10-24T10:11:07.527Z,18.20
2022-10-24T10:13:41.026Z,18.20
2022-10-24T10:16:22.730Z,18.20
2022-10-24T10:18:50.686Z,18.20
2022-10-24T10:21:20.370Z,18.10
2022-10-24T10:23:50.368Z,18.20
2022-10-24T10:26:21.586Z,18.20
2022-10-24T10:28:57.475Z,18.30
2022-10-24T10:31:34.718Z,18.30
2022-10-24T10:34:35.301Z,18.30
2022-10-24T10:37:24.051Z,18.30
2022-10-24T10:40:15.175Z,18.30
2022-10-24T10:42:54.758Z,18.30
2022-10-24T10:45:35.703Z,18.30
2022-10-24T10:48:30.038Z,18.30
2022-10-24T10:51:08.172Z,18.30
2022-10-24T10:53:41.018Z,18.30
2022-10-24T10:56:21.102Z,18.30
2022-10-24T10:59:00.971Z,18.30
2022-10-24T11:01:37.180Z,18.30
2022-10-24T11:04:15.348Z,18.40
2022-10-24T11:06:51.059Z,18.40
2022-10-24T11:09:34.380Z,18.40
2022-10-24T11:12:14.836Z,18.40
2022-10-24T11:14:47.135Z,18.50
2022-10-24T11:17:19.295Z,18.50
2022-10-24T11:19:57.735Z,18.60
2022-10-24T11:22:30.408Z,18.60
2022-10-24T11:25:03.856Z,18.60
2022-10-24T11:27:39.914Z,18.60
2022-10-24T11:30:14.962Z,18.60
2022-10-24T11:32:48.700Z,18.50
2022-10-24T11:35:26.468Z,18.60
2022-10-24T11:37:59.351Z,18.60
2022-10-24T11:40:30.141Z,18.60
2022-10-24T11:43:03.095Z,18.50
2022-10-24T11:45:39.081Z,18.60
2022-10-24T11:48:16.609Z,18.60
2022-10-24T11:50:50.819Z,18.60
2022-10-24T11:53:23.784Z,18.60
2022-10-24T11:55:56.281Z,18.50
2022-10-24T11:58:27.102Z,18.40
2022-10-24T12:01:31.656Z,18.40
2022-10-24T12:04:14.803Z,18.40
2022-10-24T12:06:58.437Z,18.40
2022-10-24T12:09:44.277Z,18.40
2022-10-24T12:12:35.870Z,18.40
2022-10-24T12:15:17.111Z,18.40
2022-10-24T12:18:02.639Z,18.40
2022-10-24T12:20:31.561Z,18.40
2022-10-24T12:23:06.250Z,18.30
2022-10-24T12:25:36.427Z,18.30
2022-10-24T12:28:06.697Z,18.30
2022-10-24T12:30:36.405Z,18.30
2022-10-24T12:33:24.638Z,18.20
2022-10-24T12:35:56.463Z,18.20
2022-10-24T12:39:08.088Z,18.10
2022-10-24T12:41:44.810Z,18.10
2022-10-24T12:44:39.951Z,18.10
2022-10-24T12:47:33.710Z,18.10
2022-10-24T12:50:35.358Z,18.20
2022-10-24T12:53:06.674Z,18.10
2022-10-24T12:56:07.927Z,18.10
2022-10-24T12:58:39.155Z,18.10
2022-10-24T13:01:12.506Z,18.10
2022-10-24T13:04:02.902Z,18.10
2022-10-24T13:06:40.238Z,18.20
2022-10-24T13:09:26.738Z,18.10
2022-10-24T13:12:06.513Z,18.10
2022-10-24T13:14:50.732Z,18.10
2022-10-24T13:17:28.794Z,18.10
2022-10-24T13:20:16.199Z,18.10
2022-10-24T13:22:45.788Z,18.20
2022-10-24T13:25:22.451Z,18.10
2022-10-24T13:28:23.933Z,18.20
2022-10-24T13:31:31.791Z,18.20
2022-10-24T13:34:29.208Z,18.20
2022-10-24T13:37:09.692Z,18.20
2022-10-24T13:39:43.749Z,18.20
2022-10-24T13:42:26.416Z,18.20
2022-10-24T13:44:59.484Z,18.20
2022-10-24T13:47:32.637Z,18.20
2022-10-24T13:50:06.222Z,18.10
2022-10-24T13:52:49.127Z,18.10
2022-10-24T13:55:25.712Z,18.10
2022-10-24T13:57:57.291Z,18.10
2022-10-24T14:00:28.470Z,18.00
2022-10-24T14:02:59.828Z,18.00
2022-10-24T14:05:34.504Z,18.00
2022-10-24T14:08:03.333Z,17.90
2022-10-24T14:10:32.144Z,17.90
2022-10-24T14:13:01.269Z,17.80
2022-10-24T14:15:33.238Z,17.90
2022-10-24T14:18:02.900Z,17.80
2022-10-24T14:20:34.950Z,17.80
2022-10-24T14:23:04.247Z,17.80
2022-10-24T14:25:36.272Z,17.80
2022-10-24T14:28:12.432Z,17.80
2022-10-24T14:30:40.433Z,17.80
2022-10-24T14:33:21.801Z,17.80
2022-10-24T14:35:55.230Z,17.80
2022-10-24T14:38:26.977Z,17.90
2022-10-24T14:41:08.032Z,17.90
2022-10-24T14:43:42.032Z,17.90
2022-10-24T14:46:34.532Z,18.00
2022-10-24T14:49:20.200Z,18.00
2022-10-24T14:54:27.045Z,18.10
2022-10-24T14:56:55.832Z,18.20
2022-10-24T14:59:27.582Z,18.20
2022-10-24T15:01:57.147Z,18.20
2022-10-24T15:04:32.589Z,18.20
2022-10-24T15:07:16.230Z,18.20
2022-10-24T15:09:55.595Z,18.20
2022-10-24T15:12:35.077Z,18.20
2022-10-24T15:15:24.853Z,18.10
2022-10-24T15:17:54.525Z,18.10
2022-10-24T15:20:27.527Z,18.00
2022-10-24T15:22:59.474Z,17.90
2022-10-24T15:25:31.000Z,17.90
2022-10-24T15:28:00.812Z,17.80
2022-10-24T15:30:30.423Z,17.70
2022-10-24T15:33:00.021Z,17.70
2022-10-24T15:35:28.652Z,17.60
2022-10-24T15:38:00.353Z,17.60
2022-10-24T15:40:31.334Z,17.50
2022-10-24T15:43:00.190Z,17.50
2022-10-24T15:45:28.750Z,17.40
2022-10-24T15:47:56.870Z,17.40
2022-10-24T15:50:25.462Z,17.30
2022-10-24T15:52:56.031Z,17.30
2022-10-24T15:55:27.416Z,17.30
2022-10-24T15:57:57.116Z,17.30
2022-10-24T16:00:26.040Z,17.30
2022-10-24T16:02:57.287Z,17.20
2022-10-24T16:05:29.670Z,17.20
2022-10-24T16:07:57.686Z,17.20
2022-10-24T16:10:27.228Z,17.20
2022-10-24T16:12:56.754Z,17.20
2022-10-24T16:15:27.952Z,17.20
2022-10-24T16:17:57.002Z,17.10
2022-10-24T16:20:25.134Z,17.10
2022-10-24T16:22:53.792Z,17.10
2022-10-24T16:25:24.654Z,17.10
2022-10-24T16:27:54.589Z,17.10
2022-10-24T16:30:24.480Z,17.10
2022-10-24T16:32:52.668Z,17.10
2022-10-24T16:35:25.710Z,17.10
2022-10-24T16:37:54.454Z,17.00
2022-10-24T16:40:25.797Z,17.00
2022-10-24T16:42:56.462Z,17.00
2022-10-24T16:45:25.584Z,17.00
2022-10-24T16:47:53.773Z,17.00
2022-10-24T16:50:25.033Z,16.90
2022-10-24T16:52:55.183Z,16.90
2022-10-24T16:55:24.350Z,16.90
2022-10-24T16:57:52.574Z,16.80
2022-10-24T17:00:24.548Z,16.80
2022-10-24T17:02:54.989Z,16.70
2022-10-24T17:05:25.067Z,16.70
2022-10-24T17:07:53.603Z,16.70
2022-10-24T17:10:24.557Z,16.70
2022-10-24T17:12:53.860Z,16.60
2022-10-24T17:15:23.634Z,16.60
2022-10-24T17:17:51.578Z,16.60
2022-10-24T17:20:19.855Z,16.50
2022-10-24T17:22:48.547Z,16.50
2022-10-24T17:25:20.657Z,16.50
2022-10-24T17:27:49.909Z,16.40
2022-10-24T17:30:19.604Z,16.40
2022-10-24T17:32:49.704Z,16.40
2022-10-24T17:35:20.598Z,16.30
2022-10-24T17:38:07.606Z,16.30
2022-10-24T17:40:45.139Z,16.30
2022-10-24T17:43:19.413Z,16.20
2022-10-24T17:45:47.503Z,16.20
2022-10-24T17:48:17.612Z,16.10
2022-10-24T17:50:45.947Z,16.00
2022-10-24T17:53:14.458Z,16.00
2022-10-24T17:55:47.425Z,16.00
2022-10-24T17:58:16.954Z,16.00
2022-10-24T18:00:46.329Z,15.90
2022-10-24T18:03:16.561Z,15.90
2022-10-24T18:05:44.499Z,15.90
2022-10-24T18:08:14.502Z,15.80
2022-10-24T18:10:42.884Z,15.80
2022-10-24T18:13:11.290Z,15.80
2022-10-24T18:15:39.254Z,15.80
2022-10-24T18:18:07.700Z,15.80
2022-10-24T18:20:39.287Z,15.80
2022-10-24T18:23:08.520Z,15.80
2022-10-24T18:25:37.947Z,15.80
2022-10-24T18:28:07.408Z,15.80
2022-10-24T18:30:36.412Z,15.70
2022-10-24T18:33:05.100Z,15.70
2022-10-24T18:35:34.128Z,15.80
2022-10-24T18:38:03.451Z,15.80
2022-10-24T18:40:33.507Z,15.80
2022-10-24T18:43:05.477Z,15.80
2022-10-24T18:45:34.615Z,15.80
2022-10-24T18:48:03.521Z,15.80
2022-10-24T18:50:32.799Z,15.70
2022-10-24T18:53:07.597Z,15.70
2022-10-24T18:55:37.943Z,15.70
2022-10-24T18:58:11.594Z,15.70
2022-10-24T19:00:40.770Z,15.70
2022-10-24T19:03:21.650Z,15.70
2022-10-24T19:05:54.806Z,15.70
2022-10-24T19:08:27.874Z,15.70
2022-10-24T19:10:57.428Z,15.70
2022-10-24T19:13:27.038Z,15.70
2022-10-24T19:16:00.373Z,15.70
2022-10-24T19:18:31.667Z,15.70
2022-10-24T19:21:00.100Z,15.70
2022-10-24T19:23:29.643Z,15.70
2022-10-24T19:25:58.648Z,15.70
2022-10-24T19:28:26.764Z,15.70
2022-10-24T19:30:55.215Z,15.70
2022-10-24T19:33:27.866Z,15.70
2022-10-24T19:35:56.143Z,15.70
2022-10-24T19:38:24.561Z,15.70
2022-10-24T19:40:55.095Z,15.70
2022-10-24T19:43:24.882Z,15.70
2022-10-24T19:46:07.480Z,15.70
2022-10-24T19:48:43.314Z,15.60
2022-10-24T19:51:15.615Z,15.60
2022-10-24T19:53:45.639Z,15.60
2022-10-24T19:56:19.023Z,15.60
2022-10-24T19:58:49.233Z,15.50
2022-10-24T20:01:19.384Z,15.50
2022-10-24T20:03:50.378Z,15.50
2022-10-24T20:06:19.452Z,15.50
2022-10-24T20:08:48.393Z,15.50
2022-10-24T20:11:20.870Z,15.40
2022-10-24T20:13:52.411Z,15.50
2022-10-24T20:16:21.004Z,15.40
2022-10-24T20:18:49.078Z,15.40
2022-10-24T20:21:18.981Z,15.40
2022-10-24T20:23:47.879Z,15.40
2022-10-24T20:26:18.859Z,15.40
2022-10-24T20:28:49.971Z,15.30
2022-10-24T20:31:23.478Z,15.30
2022-10-24T20:33:51.500Z,15.30
2022-10-24T20:36:20.755Z,15.30
2022-10-24T20:38:48.728Z,15.30
2022-10-24T20:41:18.289Z,15.30
2022-10-24T20:43:46.412Z,15.20
2022-10-24T20:46:14.641Z,15.20
2022-10-24T20:48:42.597Z,15.20
2022-10-24T20:51:12.361Z,15.20
2022-10-24T20:53:41.018Z,15.20
2022-10-24T20:56:11.559Z,15.30
2022-10-24T20:58:42.601Z,15.20
2022-10-24T21:01:12.465Z,15.20
2022-10-24T21:03:40.892Z,15.20
2022-10-24T21:06:17.149Z,15.20
2022-10-24T21:08:45.314Z,15.30
2022-10-24T21:11:15.658Z,15.30
2022-10-24T21:13:45.603Z,15.30
2022-10-24T21:16:14.651Z,15.30
2022-10-24T21:18:42.656Z,15.30
2022-10-24T21:21:12.395Z,15.30
2022-10-24T21:23:40.419Z,15.30
2022-10-24T21:26:10.165Z,15.20
2022-10-24T21:28:38.319Z,15.20
2022-10-24T21:31:09.603Z,15.20
2022-10-24T21:33:38.203Z,15.20
2022-10-24T21:36:07.806Z,15.20
2022-10-24T21:38:36.010Z,15.20
2022-10-24T21:41:05.250Z,15.20
2022-10-24T21:43:34.161Z,15.20
2022-10-24T21:46:10.665Z,15.20
2022-10-24T21:48:40.224Z,15.20
2022-10-24T21:51:10.661Z,15.10
2022-10-24T21:53:40.190Z,15.10
2022-10-24T21:56:12.239Z,15.10
2022-10-24T21:58:40.634Z,15.10
2022-10-24T22:01:15.088Z,15.10
2022-10-24T22:03:43.887Z,15.10
2022-10-24T22:06:14.777Z,15.00
2022-10-24T22:08:43.166Z,15.00
2022-10-24T22:11:14.211Z,15.00
2022-10-24T22:13:43.033Z,15.00
2022-10-24T22:16:14.222Z,15.00
2022-10-24T22:18:42.216Z,15.00
2022-10-24T22:21:18.409Z,14.90
2022-10-24T22:23:46.301Z,14.90
2022-10-24T22:26:14.471Z,14.90
2022-10-24T22:28:43.127Z,14.90
2022-10-24T22:31:14.303Z,14.90
2022-10-24T22:33:44.089Z,14.80
2022-10-24T22:36:20.051Z,14.80
2022-10-24T22:38:48.443Z,14.80
2022-10-24T22:41:16.899Z,14.80
2022-10-24T22:43:45.482Z,14.80
2022-10-24T22:46:29.862Z,14.80
2022-10-24T22:49:03.618Z,14.80
2022-10-24T22:51:32.169Z,14.80
2022-10-24T22:54:00.531Z,14.80
2022-10-24T22:56:33.380Z,14.80
2022-10-24T22:59:02.271Z,14.90
2022-10-24T23:01:50.013Z,14.90
2022-10-24T23:04:29.591Z,14.90
2022-10-24T23:07:02.807Z,14.90
2022-10-24T23:09:30.760Z,14.90
2022-10-24T23:11:59.309Z,14.90
2022-10-24T23:14:28.150Z,14.90
2022-10-24T23:16:59.932Z,14.90
2022-10-24T23:19:29.867Z,14.90
2022-10-24T23:22:01.536Z,14.90
2022-10-24T23:24:31.536Z,14.90
2022-10-24T23:27:23.915Z,14.90
2022-10-24T23:29:52.545Z,15.00
2022-10-24T23:32:24.518Z,14.90
2022-10-24T23:34:54.103Z,15.00
2022-10-24T23:37:35.833Z,15.00
2022-10-24T23:40:15.487Z,15.00
2022-10-24T23:42:44.324Z,15.00
2022-10-24T23:45:14.262Z,15.00
2022-10-24T23:48:09.685Z,15.00
2022-10-24T23:50:44.433Z,15.10
2022-10-24T23:53:24.309Z,15.10
2022-10-24T23:55:53.184Z,15.10
2022-10-24T23:58:22.054Z,15.10
